createdAt,value
2017-03-20T00:00:11.893Z,0
2017-03-20T00:01:20.785Z,0
2017-03-20T00:02:30.004Z,0
2017-03-20T00:03:39.875Z,0
2017-03-20T00:04:49.452Z,0
2017-03-20T00:05:59.476Z,0
2017-03-20T00:07:08.689Z,0
2017-03-20T00:08:17.924Z,0
2017-03-20T00:09:27.793Z,0
2017-03-20T00:10:37.339Z,0
2017-03-20T00:11:46.802Z,0
2017-03-20T00:12:55.697Z,0
2017-03-20T00:14:04.917Z,0
2017-03-20T00:15:14.461Z,0
2017-03-20T00:16:23.356Z,0
2017-03-20T00:17:32.724Z,0
2017-03-20T00:18:42.607Z,0
2017-03-20T00:19:52.481Z,0
2017-03-20T00:21:01.377Z,0
2017-03-20T00:22:10.920Z,0
2017-03-20T00:23:20.601Z,0
2017-03-20T00:24:30.481Z,0
2017-03-20T00:25:40.025Z,0
2017-03-20T00:26:49.247Z,0
2017-03-20T00:27:58.238Z,0
2017-03-20T00:29:07.282Z,0
2017-03-20T00:30:16.500Z,0
2017-03-20T00:31:25.715Z,0
2017-03-20T00:32:35.259Z,0
2017-03-20T00:33:44.815Z,0
2017-03-20T00:34:54.181Z,0
2017-03-20T00:36:03.402Z,0
2017-03-20T00:37:12.620Z,0
2017-03-20T00:38:22.494Z,0
2017-03-20T00:39:32.039Z,0
2017-03-20T00:40:41.594Z,0
2017-03-20T00:41:50.812Z,0
2017-03-20T00:43:00.359Z,0
2017-03-20T00:44:09.909Z,0
2017-03-20T00:45:18.803Z,0
2017-03-20T00:46:28.021Z,0
2017-03-20T00:47:37.234Z,0
2017-03-20T00:48:46.465Z,0
2017-03-20T00:49:56.015Z,0
2017-03-20T00:51:04.906Z,0
2017-03-20T00:52:14.274Z,0
2017-03-20T00:53:23.496Z,0
2017-03-20T00:54:33.701Z,0
2017-03-20T00:55:42.595Z,0
2017-03-20T00:56:51.806Z,0
2017-03-20T00:58:01.078Z,0
2017-03-20T00:59:10.307Z,0
2017-03-20T01:00:20.171Z,0
2017-03-20T01:01:29.386Z,0
2017-03-20T01:02:38.602Z,0
2017-03-20T01:03:47.867Z,0
2017-03-20T01:04:56.767Z,0
2017-03-20T01:06:05.659Z,0
2017-03-20T01:07:14.883Z,0
2017-03-20T01:08:24.106Z,0
2017-03-20T01:09:34.231Z,0
2017-03-20T01:10:43.768Z,0
2017-03-20T01:11:52.663Z,0
2017-03-20T01:13:02.211Z,0
2017-03-20T01:14:11.754Z,0
2017-03-20T01:15:21.298Z,0
2017-03-20T01:16:30.191Z,0
2017-03-20T01:17:39.095Z,0
2017-03-20T01:18:48.972Z,0
2017-03-20T01:19:58.841Z,0
2017-03-20T01:21:08.963Z,0
2017-03-20T01:22:17.851Z,0
2017-03-20T01:23:27.069Z,0
2017-03-20T01:24:36.947Z,0
2017-03-20T01:25:45.845Z,0
2017-03-20T01:26:54.885Z,0
2017-03-20T01:28:04.428Z,0
2017-03-20T01:29:14.624Z,0
2017-03-20T01:30:24.176Z,0
2017-03-20T01:31:33.399Z,0
2017-03-20T01:32:42.374Z,0
2017-03-20T01:33:52.248Z,0
2017-03-20T01:35:01.795Z,0
2017-03-20T01:36:11.015Z,0
2017-03-20T01:37:20.231Z,0
2017-03-20T01:38:30.407Z,0
2017-03-20T01:39:40.604Z,0
2017-03-20T01:40:49.826Z,0
2017-03-20T01:41:59.368Z,0
2017-03-20T01:43:09.567Z,0
2017-03-20T01:44:19.743Z,0
2017-03-20T01:45:29.614Z,0
2017-03-20T01:46:38.511Z,0
2017-03-20T01:47:47.729Z,0
2017-03-20T01:48:57.600Z,0
2017-03-20T01:50:07.295Z,0
2017-03-20T01:51:17.165Z,0
2017-03-20T01:52:26.381Z,0
2017-03-20T01:53:35.280Z,0
2017-03-20T01:54:45.151Z,0
2017-03-20T01:55:55.269Z,0
2017-03-20T01:57:04.483Z,0
2017-03-20T01:58:14.034Z,0
2017-03-20T01:59:23.579Z,0
2017-03-20T02:00:33.455Z,0
2017-03-20T02:01:43.075Z,0
2017-03-20T02:02:52.290Z,0
2017-03-20T02:04:02.167Z,0
2017-03-20T02:05:11.389Z,0
2017-03-20T02:06:20.609Z,0
2017-03-20T02:07:30.083Z,0
2017-03-20T02:08:38.985Z,0
2017-03-20T02:09:48.205Z,0
2017-03-20T02:10:57.423Z,0
2017-03-20T02:12:06.674Z,0
2017-03-20T02:13:16.270Z,0
2017-03-20T02:14:26.475Z,0
2017-03-20T02:15:36.031Z,0
2017-03-20T02:16:45.254Z,0
2017-03-20T02:17:54.792Z,0
2017-03-20T02:19:03.840Z,0
2017-03-20T02:20:13.394Z,0
2017-03-20T02:21:22.615Z,0
2017-03-20T02:22:31.832Z,0
2017-03-20T02:23:41.052Z,0
2017-03-20T02:24:51.404Z,0
2017-03-20T02:26:01.282Z,0
2017-03-20T02:27:10.499Z,0
2017-03-20T02:28:20.042Z,0
2017-03-20T02:29:29.592Z,0
2017-03-20T02:30:39.181Z,0
2017-03-20T02:31:48.080Z,0
2017-03-20T02:32:56.978Z,0
2017-03-20T02:34:06.533Z,0
2017-03-20T02:35:15.749Z,0
2017-03-20T02:36:25.115Z,0
2017-03-20T02:37:34.010Z,0
2017-03-20T02:38:43.238Z,0
2017-03-20T02:39:52.786Z,0
2017-03-20T02:41:02.693Z,0
2017-03-20T02:42:11.736Z,0
2017-03-20T02:43:21.609Z,0
2017-03-20T02:44:31.478Z,0
2017-03-20T02:45:41.027Z,0
2017-03-20T02:46:50.566Z,0
2017-03-20T02:48:00.312Z,0
2017-03-20T02:49:09.533Z,0
2017-03-20T02:50:19.079Z,0
2017-03-20T02:51:28.299Z,0
2017-03-20T02:52:37.522Z,0
2017-03-20T02:53:47.548Z,0
2017-03-20T02:54:56.774Z,0
2017-03-20T02:56:06.642Z,0
2017-03-20T02:57:16.182Z,0
2017-03-20T02:58:25.079Z,0
2017-03-20T02:59:35.387Z,0
2017-03-20T03:00:44.605Z,0
2017-03-20T03:01:54.150Z,0
2017-03-20T03:03:03.698Z,0
2017-03-20T03:04:12.923Z,0
2017-03-20T03:05:22.519Z,0
2017-03-20T03:06:31.741Z,0
2017-03-20T03:07:41.613Z,0
2017-03-20T03:08:51.484Z,0
2017-03-20T03:10:01.032Z,0
2017-03-20T03:11:10.650Z,0
2017-03-20T03:12:19.545Z,0
2017-03-20T03:13:28.767Z,0
2017-03-20T03:14:39.006Z,0
2017-03-20T03:15:48.560Z,0
2017-03-20T03:16:57.547Z,0
2017-03-20T03:18:06.440Z,0
2017-03-20T03:19:15.662Z,0
2017-03-20T03:20:25.538Z,0
2017-03-20T03:21:34.429Z,0
2017-03-20T03:22:43.895Z,0
2017-03-20T03:23:53.440Z,0
2017-03-20T03:25:02.983Z,0
2017-03-20T03:26:11.869Z,0
2017-03-20T03:27:21.409Z,0
2017-03-20T03:28:31.050Z,0
2017-03-20T03:29:40.600Z,0
2017-03-20T03:30:49.825Z,0
2017-03-20T03:31:59.047Z,0
2017-03-20T03:33:08.630Z,0
2017-03-20T03:34:18.501Z,0
2017-03-20T03:35:28.375Z,0
2017-03-20T03:36:38.579Z,0
2017-03-20T03:37:47.799Z,0
2017-03-20T03:38:57.023Z,0
2017-03-20T03:40:07.298Z,0
2017-03-20T03:41:16.196Z,0
2017-03-20T03:42:25.089Z,0
2017-03-20T03:43:34.958Z,0.67
2017-03-20T03:44:45.155Z,3.52
2017-03-20T03:45:54.601Z,5.04
2017-03-20T03:47:03.851Z,6.09
2017-03-20T03:48:13.069Z,5.9
2017-03-20T03:49:22.941Z,6.57
2017-03-20T03:50:32.810Z,7.14
2017-03-20T03:51:42.600Z,7.52
2017-03-20T03:52:51.497Z,7.33
2017-03-20T03:54:01.043Z,5.8
2017-03-20T03:55:10.914Z,5.24
2017-03-20T03:56:20.455Z,4.09
2017-03-20T03:57:29.538Z,3.71
2017-03-20T03:58:39.739Z,2.76
2017-03-20T03:59:49.284Z,1.52
2017-03-20T04:00:59.157Z,0
2017-03-20T04:02:08.369Z,0
2017-03-20T04:03:18.336Z,0
2017-03-20T04:04:28.206Z,0
2017-03-20T04:05:37.745Z,0
2017-03-20T04:06:46.956Z,0.85
2017-03-20T04:07:56.172Z,4.66
2017-03-20T04:09:06.242Z,8.28
2017-03-20T04:10:16.760Z,12.47
2017-03-20T04:11:25.975Z,13.52
2017-03-20T04:12:35.192Z,14.76
2017-03-20T04:13:44.425Z,16.85
2017-03-20T04:14:54.345Z,19.13
2017-03-20T04:16:04.539Z,20.56
2017-03-20T04:17:13.431Z,21.8
2017-03-20T04:18:22.328Z,21.8
2017-03-20T04:19:32.198Z,20.95
2017-03-20T04:20:41.719Z,20.37
2017-03-20T04:21:50.605Z,20.37
2017-03-20T04:22:59.820Z,20.09
2017-03-20T04:24:09.045Z,19.23
2017-03-20T04:25:18.586Z,16.56
2017-03-20T04:26:27.958Z,15.71
2017-03-20T04:27:37.501Z,14.76
2017-03-20T04:28:46.723Z,14.09
2017-03-20T04:29:56.607Z,14.47
2017-03-20T04:31:06.149Z,15.42
2017-03-20T04:32:15.839Z,16.09
2017-03-20T04:33:24.733Z,14.57
2017-03-20T04:34:34.610Z,15.14
2017-03-20T04:35:43.503Z,17.04
2017-03-20T04:36:52.397Z,19.71
2017-03-20T04:38:02.307Z,22.09
2017-03-20T04:39:12.173Z,23.9
2017-03-20T04:40:22.040Z,28.19
2017-03-20T04:41:31.253Z,33.23
2017-03-20T04:42:40.797Z,39.7
2017-03-20T04:43:50.818Z,46.47
2017-03-20T04:45:00.043Z,53.04
2017-03-20T04:46:08.937Z,58.18
2017-03-20T04:47:18.485Z,63.8
2017-03-20T04:48:28.027Z,69.89
2017-03-20T04:49:37.720Z,75.51
2017-03-20T04:50:46.619Z,80.27
2017-03-20T04:51:55.829Z,84.08
2017-03-20T04:53:05.044Z,86.75
2017-03-20T04:54:14.593Z,89.22
2017-03-20T04:55:24.761Z,90.17
2017-03-20T04:56:33.975Z,91.03
2017-03-20T04:57:43.516Z,91.41
2017-03-20T04:58:52.414Z,91.89
2017-03-20T05:00:01.963Z,92.46
2017-03-20T05:01:11.001Z,92.65
2017-03-20T05:02:19.890Z,92.84
2017-03-20T05:03:28.795Z,92.94
2017-03-20T05:04:38.707Z,93.13
2017-03-20T05:05:47.608Z,93.03
2017-03-20T05:06:57.302Z,93.13
2017-03-20T05:08:06.521Z,93.89
2017-03-20T05:09:15.745Z,93.89
2017-03-20T05:10:25.293Z,94.17
2017-03-20T05:11:34.829Z,93.98
2017-03-20T05:12:43.871Z,93.98
2017-03-20T05:13:53.410Z,93.79
2017-03-20T05:15:03.605Z,94.74
2017-03-20T05:16:13.143Z,94.37
2017-03-20T05:17:22.684Z,94.27
2017-03-20T05:18:32.227Z,94.56
2017-03-20T05:19:42.089Z,94.27
2017-03-20T05:20:50.975Z,94.65
2017-03-20T05:22:00.195Z,94.65
2017-03-20T05:23:09.420Z,94.27
2017-03-20T05:24:19.123Z,94.17
2017-03-20T05:25:29.013Z,94.84
2017-03-20T05:26:37.900Z,95.32
2017-03-20T05:27:47.438Z,94.74
2017-03-20T05:28:57.308Z,94.74
2017-03-20T05:30:07.010Z,94.65
2017-03-20T05:31:16.874Z,94.93
2017-03-20T05:32:26.416Z,95.32
2017-03-20T05:33:35.960Z,95.12
2017-03-20T05:34:45.181Z,96.17
2017-03-20T05:35:54.876Z,95.22
2017-03-20T05:37:03.775Z,95.03
2017-03-20T05:38:13.313Z,95.7
2017-03-20T05:39:22.859Z,95.79
2017-03-20T05:40:32.736Z,95.41
2017-03-20T05:41:42.212Z,95.7
2017-03-20T05:42:51.426Z,95.79
2017-03-20T05:44:01.623Z,95.51
2017-03-20T05:45:11.493Z,95.7
2017-03-20T05:46:20.715Z,95.6
2017-03-20T05:47:29.751Z,96.17
2017-03-20T05:48:39.294Z,96.75
2017-03-20T05:49:49.488Z,96.65
2017-03-20T05:50:59.680Z,96.75
2017-03-20T05:52:08.571Z,96.65
2017-03-20T05:53:17.841Z,96.84
2017-03-20T05:54:27.710Z,96.08
2017-03-20T05:55:37.257Z,96.65
2017-03-20T05:56:46.147Z,97.41
2017-03-20T05:57:55.373Z,97.03
2017-03-20T05:59:05.389Z,97.22
2017-03-20T06:00:14.935Z,97.99
2017-03-20T06:01:23.821Z,97.99
2017-03-20T06:02:32.715Z,97.13
2017-03-20T06:03:42.586Z,97.89
2017-03-20T06:04:52.282Z,97.7
2017-03-20T06:06:01.830Z,97.51
2017-03-20T06:07:11.047Z,98.18
2017-03-20T06:08:21.245Z,98.27
2017-03-20T06:09:30.794Z,97.99
2017-03-20T06:10:40.311Z,98.08
2017-03-20T06:11:49.559Z,98.74
2017-03-20T06:12:58.776Z,98.84
2017-03-20T06:14:08.326Z,99.03
2017-03-20T06:15:17.216Z,99.13
2017-03-20T06:16:26.907Z,99.13
2017-03-20T06:17:36.450Z,99.13
2017-03-20T06:18:45.998Z,99.32
2017-03-20T06:19:55.866Z,99.6
2017-03-20T06:21:05.077Z,99.13
2017-03-20T06:22:14.718Z,99.51
2017-03-20T06:23:24.265Z,99.32
2017-03-20T06:24:34.133Z,99.32
2017-03-20T06:25:43.359Z,99.41
2017-03-20T06:26:52.284Z,99.69
2017-03-20T06:28:01.181Z,99.51
2017-03-20T06:29:10.728Z,99.03
2017-03-20T06:30:20.599Z,99.22
2017-03-20T06:31:29.813Z,99.32
2017-03-20T06:32:38.706Z,99.79
2017-03-20T06:33:48.251Z,99.69
2017-03-20T06:34:57.801Z,99.89
2017-03-20T06:36:07.020Z,99.98
2017-03-20T06:37:16.889Z,99.79
2017-03-20T06:38:25.781Z,99.98
2017-03-20T06:39:35.657Z,99.99
2017-03-20T06:40:44.878Z,99.99
2017-03-20T06:41:54.424Z,99.99
2017-03-20T06:43:04.299Z,99.99
2017-03-20T06:44:14.170Z,99.99
2017-03-20T06:45:24.046Z,99.99
2017-03-20T06:46:33.256Z,99.99
2017-03-20T06:47:42.798Z,99.99
2017-03-20T06:48:52.664Z,99.99
2017-03-20T06:50:01.885Z,99.99
2017-03-20T06:51:11.097Z,99.99
2017-03-20T06:52:20.322Z,99.99
2017-03-20T06:53:29.530Z,99.99
2017-03-20T06:54:39.729Z,99.99
2017-03-20T06:55:48.707Z,99.99
2017-03-20T06:56:57.614Z,99.99
2017-03-20T06:58:06.532Z,99.99
2017-03-20T06:59:15.588Z,99.99
2017-03-20T07:00:25.465Z,99.99
2017-03-20T07:01:34.361Z,99.99
2017-03-20T07:02:43.597Z,99.99
2017-03-20T07:03:53.465Z,99.99
2017-03-20T07:05:03.163Z,99.99
2017-03-20T07:06:12.065Z,99.99
2017-03-20T07:07:21.609Z,99.99
2017-03-20T07:08:30.827Z,99.99
2017-03-20T07:09:40.373Z,99.99
2017-03-20T07:10:50.619Z,99.99
2017-03-20T07:11:59.546Z,99.99
2017-03-20T07:13:08.437Z,99.99
2017-03-20T07:14:18.306Z,99.99
2017-03-20T07:15:28.183Z,99.99
2017-03-20T07:16:37.873Z,99.99
2017-03-20T07:17:47.093Z,99.99
2017-03-20T07:18:56.972Z,99.99
2017-03-20T07:20:06.843Z,99.99
2017-03-20T07:21:17.048Z,99.99
2017-03-20T07:22:26.100Z,99.99
2017-03-20T07:23:34.991Z,99.99
2017-03-20T07:24:44.207Z,99.99
2017-03-20T07:25:53.749Z,99.99
2017-03-20T07:27:02.660Z,99.99
2017-03-20T07:28:12.261Z,99.99
2017-03-20T07:29:21.810Z,99.99
2017-03-20T07:30:32.003Z,99.99
2017-03-20T07:31:41.215Z,99.99
2017-03-20T07:32:50.434Z,99.99
2017-03-20T07:34:00.234Z,99.99
2017-03-20T07:35:09.134Z,99.99
2017-03-20T07:36:18.687Z,99.99
2017-03-20T07:37:27.911Z,99.99
2017-03-20T07:38:36.814Z,99.99
2017-03-20T07:39:46.698Z,99.99
2017-03-20T07:40:56.259Z,99.99
2017-03-20T07:42:05.169Z,99.99
2017-03-20T07:43:14.069Z,99.99
2017-03-20T07:44:22.979Z,99.99
2017-03-20T07:45:32.678Z,99.99
2017-03-20T07:46:41.578Z,99.99
2017-03-20T07:47:50.476Z,99.99
2017-03-20T07:48:59.696Z,99.99
2017-03-20T07:50:09.567Z,99.99
2017-03-20T07:51:19.032Z,99.99
2017-03-20T07:52:27.920Z,99.99
2017-03-20T07:53:37.141Z,99.99
2017-03-20T07:54:46.276Z,99.99
2017-03-20T07:55:55.505Z,99.99
2017-03-20T07:57:05.036Z,99.99
2017-03-20T07:58:14.341Z,99.99
2017-03-20T07:59:23.889Z,99.99
2017-03-20T08:00:34.085Z,99.99
2017-03-20T08:01:43.626Z,99.99
2017-03-20T08:02:52.634Z,99.99
2017-03-20T08:04:01.886Z,99.99
2017-03-20T08:05:11.466Z,99.99
2017-03-20T08:06:20.683Z,99.99
2017-03-20T08:07:29.900Z,99.99
2017-03-20T08:08:38.840Z,99.99
2017-03-20T08:09:48.717Z,99.99
2017-03-20T08:10:57.937Z,99.99
2017-03-20T08:12:06.827Z,99.99
2017-03-20T08:13:16.691Z,99.99
2017-03-20T08:14:26.072Z,99.99
2017-03-20T08:15:35.302Z,99.99
2017-03-20T08:16:44.552Z,99.99
2017-03-20T08:17:53.766Z,99.99
2017-03-20T08:19:03.638Z,99.99
2017-03-20T08:20:13.601Z,99.99
2017-03-20T08:21:22.493Z,99.99
2017-03-20T08:22:32.370Z,99.99
2017-03-20T08:23:41.602Z,99.99
2017-03-20T08:24:51.839Z,99.99
2017-03-20T08:26:01.058Z,99.99
2017-03-20T08:27:09.947Z,99.99
2017-03-20T08:28:19.163Z,99.99
2017-03-20T08:29:29.039Z,99.99
2017-03-20T08:30:37.935Z,99.99
2017-03-20T08:31:47.602Z,99.99
2017-03-20T08:32:56.494Z,99.99
2017-03-20T08:34:06.042Z,99.99
2017-03-20T08:35:15.911Z,99.99
2017-03-20T08:36:25.126Z,99.99
2017-03-20T08:37:35.035Z,99.99
2017-03-20T08:38:44.580Z,99.99
2017-03-20T08:39:53.834Z,99.99
2017-03-20T08:41:04.024Z,99.99
2017-03-20T08:42:13.248Z,99.99
2017-03-20T08:43:22.724Z,99.99
2017-03-20T08:44:32.596Z,99.99
2017-03-20T08:45:41.837Z,99.99
2017-03-20T08:46:50.725Z,99.99
2017-03-20T08:47:59.948Z,99.99
2017-03-20T08:49:09.592Z,99.99
2017-03-20T08:50:19.464Z,99.99
2017-03-20T08:51:29.015Z,99.99
2017-03-20T08:52:38.880Z,99.99
2017-03-20T08:53:48.751Z,99.99
2017-03-20T08:54:58.027Z,99.99
2017-03-20T08:56:07.241Z,99.99
2017-03-20T08:57:16.129Z,99.99
2017-03-20T08:58:25.021Z,99.99
2017-03-20T08:59:34.891Z,99.99
2017-03-20T09:00:44.264Z,99.99
2017-03-20T09:01:53.150Z,99.99
2017-03-20T09:03:02.040Z,99.99
2017-03-20T09:04:11.259Z,99.99
2017-03-20T09:05:21.129Z,99.99
2017-03-20T09:06:30.272Z,99.99
2017-03-20T09:07:39.165Z,99.99
2017-03-20T09:08:48.712Z,99.99
2017-03-20T09:09:58.309Z,99.99
2017-03-20T09:11:07.528Z,99.99
2017-03-20T09:12:17.271Z,99.99
2017-03-20T09:13:26.170Z,99.99
2017-03-20T09:14:35.394Z,99.99
2017-03-20T09:15:45.266Z,99.99
2017-03-20T09:16:54.485Z,99.99
2017-03-20T09:18:03.865Z,99.99
2017-03-20T09:19:12.763Z,99.99
2017-03-20T09:20:21.985Z,99.99
2017-03-20T09:21:31.202Z,99.99
2017-03-20T09:22:41.089Z,99.99
2017-03-20T09:23:50.463Z,99.99
2017-03-20T09:24:59.365Z,99.99
2017-03-20T09:26:08.595Z,99.99
2017-03-20T09:27:17.836Z,99.99
2017-03-20T09:28:27.061Z,99.99
2017-03-20T09:29:37.083Z,99.99
2017-03-20T09:30:46.305Z,99.99
2017-03-20T09:31:55.527Z,99.99
2017-03-20T09:33:05.072Z,99.99
2017-03-20T09:34:14.941Z,99.99
2017-03-20T09:35:24.863Z,99.99
2017-03-20T09:36:33.761Z,99.99
2017-03-20T09:37:43.317Z,99.99
2017-03-20T09:38:52.218Z,99.99
2017-03-20T09:40:02.412Z,99.99
2017-03-20T09:41:11.302Z,99.99
2017-03-20T09:42:20.194Z,99.99
2017-03-20T09:43:29.085Z,99.99
2017-03-20T09:44:37.987Z,99.99
2017-03-20T09:45:47.525Z,99.99
2017-03-20T09:46:56.516Z,99.99
2017-03-20T09:48:06.061Z,99.99
2017-03-20T09:49:15.611Z,99.99
2017-03-20T09:50:25.477Z,99.99
2017-03-20T09:51:34.368Z,99.99
2017-03-20T09:52:43.900Z,99.99
2017-03-20T09:53:52.794Z,99.99
2017-03-20T09:55:02.337Z,99.99
2017-03-20T09:56:11.230Z,99.99
2017-03-20T09:57:20.450Z,99.99
2017-03-20T09:58:30.046Z,99.99
2017-03-20T09:59:39.275Z,99.99
2017-03-20T10:00:48.169Z,99.99
2017-03-20T10:01:57.062Z,99.99
2017-03-20T10:03:06.288Z,99.99
2017-03-20T10:04:16.310Z,99.99
2017-03-20T10:05:26.187Z,99.99
2017-03-20T10:06:35.082Z,99.99
2017-03-20T10:07:44.298Z,99.99
2017-03-20T10:08:53.518Z,99.99
2017-03-20T10:10:03.442Z,99.99
2017-03-20T10:11:12.666Z,99.99
2017-03-20T10:12:22.214Z,99.99
2017-03-20T10:13:31.105Z,99.99
2017-03-20T10:14:40.651Z,99.99
2017-03-20T10:15:50.240Z,99.99
2017-03-20T10:16:59.133Z,99.99
2017-03-20T10:18:08.355Z,99.99
2017-03-20T10:19:17.579Z,99.99
2017-03-20T10:20:26.476Z,99.99
2017-03-20T10:21:36.306Z,99.99
2017-03-20T10:22:45.857Z,99.99
2017-03-20T10:23:55.730Z,99.99
2017-03-20T10:25:04.953Z,99.99
2017-03-20T10:26:14.174Z,99.99
2017-03-20T10:27:23.817Z,99.99
2017-03-20T10:28:32.716Z,99.99
2017-03-20T10:29:42.267Z,99.99
2017-03-20T10:30:51.162Z,99.99
2017-03-20T10:32:00.380Z,99.99
2017-03-20T10:33:10.498Z,99.99
2017-03-20T10:34:20.372Z,99.99
2017-03-20T10:35:30.260Z,99.99
2017-03-20T10:36:39.151Z,99.99
2017-03-20T10:37:48.047Z,99.99
2017-03-20T10:38:57.749Z,99.99
2017-03-20T10:40:07.622Z,99.99
2017-03-20T10:41:17.493Z,99.99
2017-03-20T10:42:26.709Z,99.99
2017-03-20T10:43:35.929Z,99.99
2017-03-20T10:44:45.955Z,99.99
2017-03-20T10:45:55.176Z,99.99
2017-03-20T10:47:04.394Z,99.99
2017-03-20T10:48:13.941Z,99.99
2017-03-20T10:49:23.165Z,99.99
2017-03-20T10:50:32.532Z,99.99
2017-03-20T10:51:42.074Z,99.99
2017-03-20T10:52:50.978Z,99.99
2017-03-20T10:54:00.526Z,99.99
2017-03-20T10:55:09.746Z,99.99
2017-03-20T10:56:19.014Z,99.99
2017-03-20T10:57:27.907Z,99.99
2017-03-20T10:58:36.801Z,99.99
2017-03-20T10:59:47.002Z,99.99
2017-03-20T11:00:56.554Z,99.99
2017-03-20T11:02:05.603Z,99.99
2017-03-20T11:03:14.505Z,99.99
2017-03-20T11:04:24.054Z,99.99
2017-03-20T11:05:33.928Z,99.99
2017-03-20T11:06:43.190Z,99.99
2017-03-20T11:07:52.382Z,99.99
2017-03-20T11:09:02.263Z,99.99
2017-03-20T11:10:11.524Z,99.99
2017-03-20T11:11:21.387Z,99.99
2017-03-20T11:12:30.280Z,99.99
2017-03-20T11:13:39.657Z,99.99
2017-03-20T11:14:49.223Z,99.99
2017-03-20T11:15:58.768Z,99.99
2017-03-20T11:17:07.668Z,99.99
2017-03-20T11:18:16.891Z,99.99
2017-03-20T11:19:26.915Z,99.99
2017-03-20T11:20:36.137Z,99.99
2017-03-20T11:21:45.031Z,99.99
2017-03-20T11:22:54.916Z,99.99
2017-03-20T11:24:04.466Z,99.99
2017-03-20T11:25:13.845Z,99.99
2017-03-20T11:26:22.742Z,99.99
2017-03-20T11:27:32.284Z,99.99
2017-03-20T11:28:42.156Z,99.99
2017-03-20T11:29:51.380Z,99.99
2017-03-20T11:31:00.758Z,99.99
2017-03-20T11:32:09.973Z,99.99
2017-03-20T11:33:19.838Z,99.99
2017-03-20T11:34:29.389Z,99.99
2017-03-20T11:35:38.605Z,99.99
2017-03-20T11:36:47.968Z,99.99
2017-03-20T11:37:57.183Z,99.99
2017-03-20T11:39:06.075Z,99.99
2017-03-20T11:40:14.963Z,99.99
2017-03-20T11:41:23.860Z,99.99
2017-03-20T11:42:33.225Z,99.99
2017-03-20T11:43:43.089Z,99.99
2017-03-20T11:44:52.635Z,99.99
2017-03-20T11:46:02.185Z,99.99
2017-03-20T11:47:11.081Z,99.99
2017-03-20T11:48:20.448Z,99.99
2017-03-20T11:49:30.645Z,99.99
2017-03-20T11:50:39.863Z,99.99
2017-03-20T11:51:49.081Z,99.99
2017-03-20T11:52:58.011Z,99.99
2017-03-20T11:54:07.606Z,99.99
2017-03-20T11:55:17.478Z,99.99
2017-03-20T11:56:27.353Z,99.99
2017-03-20T11:57:36.245Z,99.99
2017-03-20T11:58:45.800Z,99.99
2017-03-20T11:59:55.173Z,99.99
2017-03-20T12:01:04.397Z,99.99
2017-03-20T12:02:13.285Z,99.99
2017-03-20T12:03:22.511Z,99.99
2017-03-20T12:04:32.381Z,99.99
2017-03-20T12:05:41.268Z,99.99
2017-03-20T12:06:50.167Z,99.99
2017-03-20T12:07:59.069Z,99.99
2017-03-20T12:09:08.291Z,99.99
2017-03-20T12:10:18.212Z,99.99
2017-03-20T12:11:27.109Z,99.99
2017-03-20T12:12:36.003Z,99.99
2017-03-20T12:13:45.871Z,99.99
2017-03-20T12:14:55.424Z,99.99
2017-03-20T12:16:05.069Z,99.99
2017-03-20T12:17:13.989Z,99.99
2017-03-20T12:18:23.211Z,99.99
2017-03-20T12:19:33.087Z,99.99
2017-03-20T12:20:42.637Z,99.99
2017-03-20T12:21:52.180Z,99.99
2017-03-20T12:23:01.396Z,99.99
2017-03-20T12:24:11.271Z,99.99
2017-03-20T12:25:20.819Z,99.99
2017-03-20T12:26:29.734Z,99.99
2017-03-20T12:27:39.112Z,99.99
2017-03-20T12:28:48.669Z,99.99
2017-03-20T12:29:58.219Z,99.99
2017-03-20T12:31:07.435Z,99.99
2017-03-20T12:32:16.331Z,99.99
2017-03-20T12:33:25.605Z,99.99
2017-03-20T12:34:34.823Z,99.99
2017-03-20T12:35:43.715Z,99.99
2017-03-20T12:36:52.615Z,99.99
2017-03-20T12:38:02.159Z,99.99
2017-03-20T12:39:11.353Z,99.99
2017-03-20T12:40:20.259Z,99.99
2017-03-20T12:41:29.149Z,99.99
2017-03-20T12:42:38.370Z,99.99
2017-03-20T12:43:48.568Z,99.99
2017-03-20T12:44:57.840Z,99.99
2017-03-20T12:46:07.063Z,99.99
2017-03-20T12:47:15.951Z,99.99
2017-03-20T12:48:25.168Z,99.99
2017-03-20T12:49:34.386Z,99.99
2017-03-20T12:50:44.402Z,99.99
2017-03-20T12:51:53.618Z,99.99
2017-03-20T12:53:02.835Z,99.99
2017-03-20T12:54:12.714Z,99.99
2017-03-20T12:55:22.254Z,99.99
2017-03-20T12:56:31.722Z,99.99
2017-03-20T12:57:40.612Z,99.99
2017-03-20T12:58:49.835Z,99.99
2017-03-20T12:59:59.713Z,99.99
2017-03-20T13:01:08.929Z,99.99
2017-03-20T13:02:18.072Z,99.99
2017-03-20T13:03:27.303Z,99.99
2017-03-20T13:04:36.852Z,99.99
2017-03-20T13:05:45.782Z,99.99
2017-03-20T13:06:54.672Z,99.99
2017-03-20T13:08:04.137Z,99.99
2017-03-20T13:09:13.684Z,99.99
2017-03-20T13:10:23.561Z,99.99
2017-03-20T13:11:32.456Z,99.99
2017-03-20T13:12:41.346Z,99.99
2017-03-20T13:13:50.723Z,99.99
2017-03-20T13:15:00.308Z,99.99
2017-03-20T13:16:09.462Z,99.99
2017-03-20T13:17:18.429Z,99.99
2017-03-20T13:18:27.653Z,99.99
2017-03-20T13:19:37.873Z,99.99
2017-03-20T13:20:47.123Z,99.99
2017-03-20T13:21:56.730Z,99.99
2017-03-20T13:23:05.622Z,99.99
2017-03-20T13:24:15.169Z,99.99
2017-03-20T13:25:25.196Z,99.99
2017-03-20T13:26:34.414Z,99.99
2017-03-20T13:27:43.311Z,99.99
2017-03-20T13:28:52.575Z,99.99
2017-03-20T13:30:01.798Z,99.99
2017-03-20T13:31:10.787Z,99.99
2017-03-20T13:32:19.712Z,99.99
2017-03-20T13:33:28.647Z,99.99
2017-03-20T13:34:38.192Z,99.99
2017-03-20T13:35:47.433Z,99.99
2017-03-20T13:36:56.753Z,99.99
2017-03-20T13:38:05.649Z,99.99
2017-03-20T13:39:15.193Z,99.99
2017-03-20T13:40:24.428Z,99.99
2017-03-20T13:41:33.322Z,99.99
2017-03-20T13:42:43.177Z,99.99
2017-03-20T13:43:52.744Z,99.99
2017-03-20T13:45:02.624Z,99.99
2017-03-20T13:46:11.542Z,99.99
2017-03-20T13:47:20.442Z,99.99
2017-03-20T13:48:29.806Z,99.99
2017-03-20T13:49:39.690Z,99.99
2017-03-20T13:50:48.585Z,99.99
2017-03-20T13:51:57.490Z,99.99
2017-03-20T13:53:06.716Z,99.99
2017-03-20T13:54:16.606Z,99.99
2017-03-20T13:55:26.151Z,99.99
2017-03-20T13:56:35.533Z,99.99
2017-03-20T13:57:45.231Z,99.99
2017-03-20T13:58:55.097Z,99.99
2017-03-20T14:00:04.688Z,99.99
2017-03-20T14:01:13.585Z,99.99
2017-03-20T14:02:22.473Z,99.99
2017-03-20T14:03:31.687Z,99.99
2017-03-20T14:04:41.600Z,99.99
2017-03-20T14:05:51.242Z,99.99
2017-03-20T14:07:01.120Z,99.99
2017-03-20T14:08:10.340Z,99.99
2017-03-20T14:09:19.562Z,99.99
2017-03-20T14:10:28.780Z,99.99
2017-03-20T14:11:38.098Z,99.99
2017-03-20T14:12:46.991Z,99.99
2017-03-20T14:13:56.541Z,99.99
2017-03-20T14:15:06.408Z,99.99
2017-03-20T14:16:15.624Z,99.99
2017-03-20T14:17:24.765Z,99.99
2017-03-20T14:18:34.305Z,99.99
2017-03-20T14:19:43.846Z,99.99
2017-03-20T14:20:52.742Z,99.99
2017-03-20T14:22:01.632Z,99.99
2017-03-20T14:23:10.823Z,99.99
2017-03-20T14:24:20.370Z,99.99
2017-03-20T14:25:29.915Z,99.99
2017-03-20T14:26:38.806Z,99.99
2017-03-20T14:27:47.698Z,99.99
2017-03-20T14:28:56.700Z,99.99
2017-03-20T14:30:06.246Z,99.99
2017-03-20T14:31:15.467Z,99.99
2017-03-20T14:32:24.360Z,99.99
2017-03-20T14:33:33.585Z,99.99
2017-03-20T14:34:43.186Z,99.99
2017-03-20T14:35:52.404Z,99.99
2017-03-20T14:37:01.293Z,99.99
2017-03-20T14:38:10.208Z,99.99
2017-03-20T14:39:20.405Z,99.99
2017-03-20T14:40:29.778Z,99.99
2017-03-20T14:41:38.679Z,99.99
2017-03-20T14:42:47.573Z,99.99
2017-03-20T14:43:56.797Z,99.99
2017-03-20T14:45:06.341Z,99.99
2017-03-20T14:46:15.531Z,99.99
2017-03-20T14:47:24.442Z,99.99
2017-03-20T14:48:33.671Z,99.99
2017-03-20T14:49:42.907Z,99.99
2017-03-20T14:50:52.124Z,99.99
2017-03-20T14:52:01.871Z,99.99
2017-03-20T14:53:11.468Z,99.99
2017-03-20T14:54:21.083Z,99.99
2017-03-20T14:55:30.635Z,99.99
2017-03-20T14:56:39.851Z,99.99
2017-03-20T14:57:49.146Z,99.99
2017-03-20T14:58:58.054Z,99.99
2017-03-20T15:00:07.599Z,99.99
2017-03-20T15:01:16.519Z,99.99
2017-03-20T15:02:25.410Z,99.99
2017-03-20T15:03:34.515Z,99.99
2017-03-20T15:04:44.416Z,99.99
2017-03-20T15:05:53.724Z,99.99
2017-03-20T15:07:02.614Z,99.99
2017-03-20T15:08:11.834Z,99.99
2017-03-20T15:09:22.313Z,99.99
2017-03-20T15:10:31.920Z,99.99
2017-03-20T15:11:40.820Z,99.99
2017-03-20T15:12:49.724Z,99.99
2017-03-20T15:13:59.628Z,99.99
2017-03-20T15:15:09.427Z,99.99
2017-03-20T15:16:18.972Z,99.99
2017-03-20T15:17:27.870Z,99.99
2017-03-20T15:18:37.101Z,99.99
2017-03-20T15:19:47.326Z,99.99
2017-03-20T15:20:56.311Z,99.99
2017-03-20T15:22:05.202Z,99.99
2017-03-20T15:23:14.419Z,99.99
2017-03-20T15:24:23.967Z,99.99